WZZ29 LIRF-EDDM
Flight info
| Callsign | WZZ29 |
|---|---|
| Flight time | N/A |
| Altitude | 38000 |
| Route | SOVAN DCT AMTEL DCT NAXAV DCT SOTOV/N0391F240 T101 BETOS BETOS1A |
| Aircraft | A20N/M-SDE2E3FGHIRWXY/LB1 |
Departure
| Time | 2026-05-01 07:25 |
|---|---|
| Airport | Rome–Fiumicino Leonardo da Vinci International Airport (LIRF) |
Arrival
| Time | N/A |
|---|---|
| Airport | Munich Airport (EDDM) |
| Time | Latitude | Longitude | Altitude | Speed | Heading |
|---|---|---|---|---|---|
| 2026-05-01 07:23 | 41.80483 | 12.26083 | 16 ft | 19 kts | 70° |
| 2026-05-01 07:23 | 41.80710 | 12.26152 | 22 ft | 19 kts | 313° |
| 2026-05-01 07:24 | 41.80724 | 12.26083 | 21 ft | 0 kts | 250° |
| 2026-05-01 07:24 | 41.80675 | 12.25899 | 20 ft | 70 kts | 249° |
| 2026-05-01 07:24 | 41.80362 | 12.24770 | 20 ft | 184 kts | 250° |
| 2026-05-01 07:25 | 41.79898 | 12.23021 | 795 ft | 205 kts | 253° |
| 2026-05-01 07:25 | 41.79404 | 12.21173 | 2010 ft | 219 kts | 251° |
| 2026-05-01 07:25 | 41.78907 | 12.19167 | 3034 ft | 236 kts | 264° |
| 2026-05-01 07:25 | 41.79187 | 12.17013 | 4224 ft | 235 kts | 303° |
| 2026-05-01 07:26 | 41.80305 | 12.15396 | 5580 ft | 243 kts | 320° |
| 2026-05-01 07:26 | 41.81606 | 12.13866 | 6848 ft | 256 kts | 320° |
| 2026-05-01 07:26 | 41.82895 | 12.12171 | 8215 ft | 261 kts | 317° |
| 2026-05-01 07:26 | 41.84209 | 12.10495 | 9759 ft | 258 kts | 330° |
| 2026-05-01 07:27 | 41.85864 | 12.09575 | 11027 ft | 266 kts | 345° |
| 2026-05-01 07:27 | 41.87727 | 12.08914 | 11981 ft | 285 kts | 347° |
| 2026-05-01 07:27 | 41.89684 | 12.08261 | 13218 ft | 294 kts | 347° |
| 2026-05-01 07:27 | 41.91684 | 12.07568 | 14525 ft | 299 kts | 347° |
| 2026-05-01 07:28 | 41.93708 | 12.06844 | 15770 ft | 303 kts | 346° |
| 2026-05-01 07:28 | 41.95761 | 12.06134 | 17037 ft | 306 kts | 351° |
| 2026-05-01 07:28 | 41.97881 | 12.05852 | 18283 ft | 309 kts | 356° |
| 2026-05-01 07:28 | 42.00039 | 12.05647 | 19383 ft | 313 kts | 356° |
| 2026-05-01 07:29 | 42.02232 | 12.05453 | 20381 ft | 319 kts | 356° |
| 2026-05-01 07:29 | 42.04470 | 12.05250 | 21363 ft | 325 kts | 356° |
| 2026-05-01 07:29 | 42.06715 | 12.05039 | 22319 ft | 330 kts | 355° |
| 2026-05-01 07:29 | 42.09032 | 12.04817 | 23271 ft | 336 kts | 355° |
| 2026-05-01 07:30 | 42.11374 | 12.04591 | 24130 ft | 341 kts | 355° |
| 2026-05-01 07:30 | 42.13760 | 12.04360 | 24840 ft | 346 kts | 354° |
| 2026-05-01 07:30 | 42.16189 | 12.04123 | 25443 ft | 353 kts | 354° |
| 2026-05-01 07:30 | 42.18660 | 12.03856 | 26082 ft | 359 kts | 352° |
| 2026-05-01 07:31 | 42.21156 | 12.03419 | 26736 ft | 363 kts | 349° |
| 2026-05-01 07:31 | 42.28761 | 12.01644 | 28699 ft | 376 kts | 347° |
| 2026-05-01 07:32 | 42.33976 | 12.00407 | 29921 ft | 385 kts | 347° |
| 2026-05-01 07:32 | 42.36638 | 11.99794 | 30541 ft | 387 kts | 347° |
| 2026-05-01 07:33 | 42.41922 | 11.98602 | 31975 ft | 383 kts | 348° |
| 2026-05-01 07:33 | 42.44544 | 11.98014 | 32668 ft | 381 kts | 348° |
| 2026-05-01 07:33 | 42.49702 | 11.96854 | 34096 ft | 375 kts | 348° |
| 2026-05-01 07:34 | 42.52261 | 11.96277 | 34681 ft | 373 kts | 348° |
| 2026-05-01 07:34 | 42.57384 | 11.95115 | 35664 ft | 373 kts | 348° |
| 2026-05-01 07:34 | 42.59940 | 11.94534 | 36139 ft | 373 kts | 348° |
| 2026-05-01 07:35 | 42.62501 | 11.93952 | 36620 ft | 372 kts | 349° |
| 2026-05-01 07:35 | 42.65057 | 11.93371 | 37094 ft | 372 kts | 349° |
| 2026-05-01 07:35 | 42.67604 | 11.92791 | 37557 ft | 372 kts | 349° |
| 2026-05-01 07:35 | 42.70154 | 11.92210 | 38018 ft | 371 kts | 349° |
| 2026-05-01 07:36 | 42.72715 | 11.91627 | 38251 ft | 373 kts | 349° |
| 2026-05-01 07:36 | 42.77821 | 11.90462 | 38286 ft | 371 kts | 349° |
| 2026-05-01 07:37 | 42.85325 | 11.88055 | 38294 ft | 369 kts | 337° |
| 2026-05-01 07:37 | 42.89890 | 11.84855 | 38298 ft | 369 kts | 332° |
| 2026-05-01 07:38 | 42.94325 | 11.81396 | 38299 ft | 369 kts | 332° |
| 2026-05-01 07:39 | 43.01069 | 11.76300 | 38302 ft | 369 kts | 333° |
| 2026-05-01 07:39 | 43.07870 | 11.71302 | 38309 ft | 370 kts | 333° |
| 2026-05-01 07:40 | 43.12407 | 11.67969 | 38308 ft | 370 kts | 333° |
| 2026-05-01 07:40 | 43.16927 | 11.64638 | 38315 ft | 367 kts | 333° |
| 2026-05-01 07:41 | 43.21431 | 11.61368 | 38311 ft | 365 kts | 338° |
| 2026-05-01 07:41 | 43.26358 | 11.60007 | 38319 ft | 366 kts | 354° |
| 2026-05-01 07:42 | 43.28911 | 11.59834 | 38321 ft | 368 kts | 356° |
| 2026-05-01 07:42 | 43.34054 | 11.59671 | 38319 ft | 369 kts | 356° |
| 2026-05-01 07:43 | 43.39185 | 11.59404 | 38320 ft | 369 kts | 355° |
| 2026-05-01 07:43 | 43.46883 | 11.58795 | 38324 ft | 369 kts | 355° |
| 2026-05-01 07:44 | 43.57166 | 11.57911 | 38325 ft | 370 kts | 355° |
| 2026-05-01 07:45 | 43.62272 | 11.57477 | 38325 ft | 370 kts | 355° |
| 2026-05-01 07:45 | 43.67404 | 11.57043 | 38328 ft | 369 kts | 355° |
| 2026-05-01 07:46 | 43.72524 | 11.56609 | 38337 ft | 369 kts | 355° |
| 2026-05-01 07:47 | 43.80208 | 11.55956 | 38345 ft | 368 kts | 355° |
| 2026-05-01 07:47 | 43.85317 | 11.55520 | 38344 ft | 369 kts | 356° |
| 2026-05-01 07:48 | 43.93038 | 11.54861 | 38351 ft | 371 kts | 356° |
| 2026-05-01 07:48 | 43.98195 | 11.54420 | 38356 ft | 371 kts | 356° |
| 2026-05-01 07:49 | 44.05907 | 11.53758 | 38362 ft | 373 kts | 356° |
| 2026-05-01 07:50 | 44.11099 | 11.53312 | 38371 ft | 374 kts | 356° |
| 2026-05-01 07:50 | 44.18911 | 11.52640 | 38376 ft | 375 kts | 356° |
| 2026-05-01 07:51 | 44.24124 | 11.52189 | 38376 ft | 375 kts | 356° |
| 2026-05-01 07:52 | 44.31890 | 11.51518 | 38389 ft | 375 kts | 356° |
| 2026-05-01 07:52 | 44.37098 | 11.51066 | 38392 ft | 375 kts | 356° |
| 2026-05-01 07:53 | 44.44915 | 11.50387 | 38395 ft | 377 kts | 356° |
| 2026-05-01 07:53 | 44.50167 | 11.49929 | 38397 ft | 378 kts | 356° |
| 2026-05-01 07:55 | 44.63355 | 11.48777 | 38397 ft | 381 kts | 356° |
| 2026-05-01 07:56 | 44.76626 | 11.47612 | 38395 ft | 382 kts | 356° |
| 2026-05-01 07:57 | 44.84575 | 11.46912 | 38382 ft | 384 kts | 357° |
| 2026-05-01 07:58 | 44.95245 | 11.45970 | 38396 ft | 384 kts | 357° |
| 2026-05-01 07:59 | 45.05030 | 11.45101 | 38396 ft | 385 kts | 357° |
| 2026-05-01 08:00 | 45.21099 | 11.43670 | 38397 ft | 385 kts | 357° |
| 2026-05-01 08:01 | 45.31822 | 11.42710 | 38401 ft | 386 kts | 357° |
| 2026-05-01 08:02 | 45.39867 | 11.41988 | 38408 ft | 386 kts | 357° |
| 2026-05-01 08:03 | 45.47882 | 11.41266 | 38398 ft | 386 kts | 358° |
| 2026-05-01 08:03 | 45.55932 | 11.40539 | 38401 ft | 386 kts | 358° |
| 2026-05-01 08:04 | 45.66666 | 11.39566 | 38402 ft | 386 kts | 358° |
| 2026-05-01 08:05 | 45.74714 | 11.38834 | 38393 ft | 386 kts | 358° |
| 2026-05-01 08:06 | 45.82750 | 11.38101 | 38400 ft | 386 kts | 358° |
| 2026-05-01 08:07 | 45.93465 | 11.37121 | 38389 ft | 386 kts | 358° |
| 2026-05-01 08:08 | 46.01499 | 11.36383 | 38383 ft | 385 kts | 359° |
| 2026-05-01 08:09 | 46.12131 | 11.35403 | 38382 ft | 384 kts | 359° |
| 2026-05-01 08:09 | 46.17471 | 11.34910 | 38380 ft | 384 kts | 359° |
| 2026-05-01 08:10 | 46.28128 | 11.33923 | 38378 ft | 384 kts | 359° |
| 2026-05-01 08:11 | 46.38757 | 11.32935 | 38379 ft | 384 kts | 359° |
| 2026-05-01 08:12 | 46.46733 | 11.32099 | 38356 ft | 384 kts | 356° |
| 2026-05-01 08:13 | 46.54685 | 11.30391 | 38378 ft | 386 kts | 354° |
| 2026-05-01 08:13 | 46.62645 | 11.28478 | 38372 ft | 386 kts | 354° |
| 2026-05-01 08:14 | 46.67923 | 11.27234 | 38277 ft | 377 kts | 354° |
| 2026-05-01 08:14 | 46.70460 | 11.26639 | 37891 ft | 371 kts | 354° |
| 2026-05-01 08:14 | 46.72992 | 11.26048 | 37485 ft | 366 kts | 355° |
| 2026-05-01 08:15 | 46.75492 | 11.25465 | 37085 ft | 362 kts | 355° |
| 2026-05-01 08:15 | 46.80393 | 11.24322 | 36301 ft | 351 kts | 355° |
| 2026-05-01 08:15 | 46.82791 | 11.23762 | 35909 ft | 346 kts | 356° |
| 2026-05-01 08:16 | 46.85144 | 11.23211 | 35526 ft | 339 kts | 356° |
| 2026-05-01 08:16 | 46.87461 | 11.22668 | 35168 ft | 336 kts | 356° |
| 2026-05-01 08:16 | 46.89762 | 11.22131 | 34705 ft | 335 kts | 356° |
| 2026-05-01 08:16 | 46.92070 | 11.21593 | 34211 ft | 335 kts | 356° |
| 2026-05-01 08:17 | 46.94369 | 11.21123 | 33672 ft | 332 kts | 1° |
| 2026-05-01 08:17 | 46.96657 | 11.21037 | 33247 ft | 326 kts | 5° |
| 2026-05-01 08:17 | 46.98915 | 11.21135 | 32858 ft | 322 kts | 7° |
| 2026-05-01 08:17 | 47.01143 | 11.21319 | 32468 ft | 320 kts | 7° |
| 2026-05-01 08:18 | 47.03348 | 11.21526 | 32073 ft | 317 kts | 8° |